Time;durP1;ratioP1;P1;durP2;ratioP2;P2;SDS_P1;SDS_P2;PMS_P1;PMS_P2;Temp;Humidity;BMP_temperature;BMP_pressure;BME280_temperature;BME280_humidity;BME280_pressure;Samples;Min_cycle;Max_cycle;Signal;HPM_P1;HPM_P2
2023/10/21 00:00:04;;;;;;;34.65;19.77;;;9.80;99.90;;;;;;5076113;28;20051;-69
2023/10/21 00:02:31;;;;;;;40.33;21.40;;;9.90;99.90;;;;;;5076546;28;20048;-69
2023/10/21 00:04:58;;;;;;;37.80;20.92;;;10.00;99.90;;;;;;5076091;28;20433;-68
2023/10/21 00:07:25;;;;;;;49.83;23.52;;;10.00;99.90;;;;;;5076512;28;20052;-69
2023/10/21 00:09:52;;;;;;;36.50;20.73;;;10.00;99.90;;;;;;5076628;28;20044;-69
2023/10/21 00:12:20;;;;;;;34.63;20.63;;;10.00;99.90;;;;;;5075942;28;20052;-68
2023/10/21 00:14:48;;;;;;;37.88;21.85;;;10.00;99.90;;;;;;5076524;28;20508;-69
2023/10/21 00:17:15;;;;;;;38.08;20.75;;;10.10;99.90;;;;;;5075937;28;20040;-71
2023/10/21 00:19:42;;;;;;;39.13;21.63;;;10.10;99.90;;;;;;5075736;28;20044;-69
2023/10/21 00:22:10;;;;;;;32.88;18.60;;;10.10;99.90;;;;;;5075973;28;20121;-70
2023/10/21 00:24:37;;;;;;;37.47;20.83;;;10.10;99.90;;;;;;5075995;28;20450;-71
2023/10/21 00:27:03;;;;;;;41.92;21.75;;;10.10;99.90;;;;;;5076330;28;20121;-70
2023/10/21 00:29:30;;;;;;;37.40;20.50;;;10.10;99.90;;;;;;5076184;28;20044;-70
2023/10/21 00:31:58;;;;;;;35.40;21.15;;;10.20;99.90;;;;;;5075517;28;20463;-70
2023/10/21 00:34:25;;;;;;;36.50;20.85;;;10.20;99.90;;;;;;5075925;28;20104;-72
2023/10/21 00:36:52;;;;;;;41.08;20.48;;;10.20;99.90;;;;;;5075620;28;20044;-70
2023/10/21 00:39:19;;;;;;;32.97;18.33;;;10.30;99.90;;;;;;5075488;28;20117;-70
2023/10/21 00:41:46;;;;;;;33.92;19.25;;;10.30;99.90;;;;;;5075604;28;20048;-70
2023/10/21 00:44:13;;;;;;;31.13;19.10;;;10.40;99.90;;;;;;5075794;28;20093;-70
2023/10/21 00:46:42;;;;;;;29.02;17.55;;;10.50;99.90;;;;;;5075208;28;20048;-71
2023/10/21 00:49:10;;;;;;;32.13;17.95;;;10.60;99.90;;;;;;5075436;28;20063;-69
2023/10/21 00:51:39;;;;;;;26.85;16.88;;;10.70;99.90;;;;;;5075901;28;20044;-68
2023/10/21 00:54:07;;;;;;;34.60;17.67;;;10.70;99.90;;;;;;5075376;28;20090;-70
2023/10/21 00:56:34;;;;;;;30.85;18.17;;;10.80;99.90;;;;;;5072027;28;20052;-69
2023/10/21 00:59:01;;;;;;;33.50;18.55;;;10.80;99.90;;;;;;5075344;28;20051;-70
2023/10/21 01:01:28;;;;;;;33.95;18.35;;;10.80;99.90;;;;;;5074560;28;20048;-71
2023/10/21 01:03:58;;;;;;;30.52;17.70;;;10.80;99.90;;;;;;5075079;28;20054;-70
2023/10/21 01:06:27;;;;;;;31.50;18.13;;;10.80;99.90;;;;;;5075558;28;20051;-71
2023/10/21 01:08:54;;;;;;;29.48;17.70;;;10.80;99.90;;;;;;5071206;28;20072;-70
2023/10/21 01:11:20;;;;;;;29.33;18.10;;;10.80;99.90;;;;;;5074903;28;20047;-71
2023/10/21 01:13:48;;;;;;;30.42;17.05;;;10.80;99.90;;;;;;5074432;28;20048;-70
2023/10/21 01:16:15;;;;;;;30.38;17.67;;;10.90;99.90;;;;;;5092196;28;20044;-70
2023/10/21 01:18:42;;;;;;;33.45;18.30;;;10.80;99.90;;;;;;5090988;28;20059;-69
2023/10/21 01:21:10;;;;;;;31.00;18.25;;;10.90;99.90;;;;;;5070210;28;20040;-69
2023/10/21 01:23:39;;;;;;;33.55;18.92;;;10.90;99.90;;;;;;5093102;28;20408;-69
2023/10/21 01:26:07;;;;;;;41.30;21.33;;;11.00;99.90;;;;;;5075313;28;20598;-70
2023/10/21 01:28:34;;;;;;;38.28;21.63;;;10.90;99.90;;;;;;5092246;28;20044;-70
2023/10/21 01:31:02;;;;;;;40.28;21.15;;;10.90;99.90;;;;;;5074999;28;20048;-70
2023/10/21 01:33:29;;;;;;;33.33;21.02;;;10.90;99.90;;;;;;5074838;28;20098;-70
2023/10/21 01:35:56;;;;;;;43.17;23.00;;;10.90;99.90;;;;;;5074516;28;20055;-71
2023/10/21 01:38:24;;;;;;;47.80;24.90;;;11.00;99.90;;;;;;5074729;28;20044;-70
2023/10/21 01:40:53;;;;;;;46.05;23.60;;;10.80;99.90;;;;;;5074762;28;20052;-71
2023/10/21 01:43:19;;;;;;;42.88;22.38;;;10.70;99.90;;;;;;5092089;28;20400;-70
2023/10/21 01:45:46;;;;;;;54.95;26.48;;;10.70;99.90;;;;;;5074877;28;20491;-71
2023/10/21 01:48:13;;;;;;;43.42;24.65;;;10.60;99.90;;;;;;5074881;28;20446;-70
2023/10/21 01:50:40;;;;;;;43.75;25.08;;;10.60;99.90;;;;;;5074087;28;20507;-70
2023/10/21 01:53:08;;;;;;;54.78;27.95;;;10.50;99.90;;;;;;5074736;28;20097;-70
2023/10/21 01:55:35;;;;;;;52.10;26.50;;;10.40;99.90;;;;;;5070490;28;20079;-70
2023/10/21 01:58:04;;;;;;;39.67;23.42;;;10.40;99.90;;;;;;5074000;28;20500;-70
2023/10/21 02:00:31;;;;;;;37.78;21.67;;;10.30;99.90;;;;;;5073567;28;20048;-69
2023/10/21 02:02:58;;;;;;;43.75;24.23;;;10.30;99.90;;;;;;5073915;28;20040;-68
2023/10/21 02:05:26;;;;;;;46.25;23.85;;;10.30;99.90;;;;;;5074565;28;20048;-69
2023/10/21 02:07:53;;;;;;;44.78;24.05;;;10.30;99.90;;;;;;5074160;28;20542;-69
2023/10/21 02:10:20;;;;;;;34.83;20.88;;;10.30;99.90;;;;;;5073611;28;20055;-70
2023/10/21 02:12:47;;;;;;;40.75;21.67;;;10.40;99.90;;;;;;5074507;28;20066;-70
2023/10/21 02:15:16;;;;;;;42.28;22.10;;;10.30;99.90;;;;;;5073891;28;20052;-69
2023/10/21 02:17:44;;;;;;;40.67;23.60;;;10.30;99.90;;;;;;5073877;28;20069;-70
2023/10/21 02:20:13;;;;;;;43.80;23.48;;;10.30;99.90;;;;;;5074107;28;20054;-70
2023/10/21 02:22:40;;;;;;;40.90;23.27;;;10.30;99.90;;;;;;5074054;28;20082;-70
2023/10/21 02:25:08;;;;;;;49.08;25.33;;;10.30;99.90;;;;;;5069631;28;20061;-70
2023/10/21 02:27:35;;;;;;;43.30;24.90;;;10.30;99.90;;;;;;5092230;28;20461;-70
2023/10/21 02:30:04;;;;;;;49.42;26.27;;;10.20;99.90;;;;;;5074271;28;20047;-71
2023/10/21 02:32:33;;;;;;;59.08;27.42;;;10.20;99.90;;;;;;5073698;28;20075;-71
2023/10/21 02:34:59;;;;;;;49.28;27.83;;;10.10;99.90;;;;;;5074140;28;20105;-71
2023/10/21 02:37:26;;;;;;;55.35;29.33;;;10.10;99.90;;;;;;5074142;28;20094;-70
2023/10/21 02:39:54;;;;;;;54.45;28.58;;;10.10;99.90;;;;;;5073500;28;20105;-70
2023/10/21 02:42:21;;;;;;;50.88;27.30;;;10.10;99.90;;;;;;5073962;28;20403;-71
2023/10/21 02:44:51;;;;;;;48.10;26.33;;;10.10;99.90;;;;;;5069472;28;20097;-72
2023/10/21 02:47:19;;;;;;;;;;;10.10;99.90;;;;;;5073866;28;20051;-71
2023/10/21 02:49:47;;;;;;;51.95;25.88;;;10.10;99.90;;;;;;5074166;28;20013;-71
2023/10/21 02:52:14;;;;;;;56.70;26.23;;;10.10;99.90;;;;;;5068924;28;20079;-71
2023/10/21 02:54:41;;;;;;;48.13;25.00;;;10.00;99.90;;;;;;5073911;28;20089;-71
2023/10/21 02:57:08;;;;;;;53.08;25.42;;;10.00;99.90;;;;;;5074292;28;20044;-70
2023/10/21 02:59:35;;;;;;;45.20;22.98;;;10.00;99.90;;;;;;5072926;28;20146;-71
2023/10/21 03:02:02;;;;;;;41.72;22.15;;;10.00;99.90;;;;;;5073837;28;20044;-71
2023/10/21 03:04:29;;;;;;;35.80;21.60;;;10.00;99.90;;;;;;5073682;28;20430;-70
2023/10/21 03:06:57;;;;;;;44.55;23.17;;;10.00;99.90;;;;;;5073660;28;20060;-71
2023/10/21 03:09:24;;;;;;;41.92;22.55;;;10.00;99.90;;;;;;5073948;28;20048;-70
2023/10/21 03:11:51;;;;;;;40.83;22.85;;;10.00;99.90;;;;;;5074744;28;20052;-71
2023/10/21 03:14:17;;;;;;;39.67;21.95;;;10.00;99.90;;;;;;5077166;28;20048;-70
2023/10/21 03:16:44;;;;;;;38.10;21.08;;;10.00;99.90;;;;;;5077661;28;20048;-72
2023/10/21 03:19:11;;;;;;;35.55;20.83;;;10.00;99.90;;;;;;5077579;28;20052;-72
2023/10/21 03:21:38;;;;;;;34.35;20.05;;;9.90;99.90;;;;;;5094805;28;20044;-71
2023/10/21 03:24:07;;;;;;;40.03;20.83;;;10.00;99.90;;;;;;5077629;28;20407;-70
2023/10/21 03:26:34;;;;;;;43.10;22.02;;;9.90;99.90;;;;;;5073757;28;20040;-71
2023/10/21 03:29:01;;;;;;;39.38;22.23;;;9.80;99.90;;;;;;5076498;28;20056;-71
2023/10/21 03:31:28;;;;;;;43.30;23.40;;;9.80;99.90;;;;;;5077456;28;20056;-71
2023/10/21 03:33:55;;;;;;;37.58;23.13;;;9.80;99.90;;;;;;5076905;28;20050;-71
2023/10/21 03:36:22;;;;;;;48.65;25.55;;;9.80;99.90;;;;;;5076670;28;20044;-70
2023/10/21 03:38:48;;;;;;;45.63;26.40;;;9.80;99.90;;;;;;5077170;28;20044;-70
2023/10/21 03:41:17;;;;;;;44.75;23.40;;;9.80;99.90;;;;;;5077042;28;20052;-71
2023/10/21 03:43:43;;;;;;;45.47;24.45;;;9.80;99.90;;;;;;5071957;28;20048;-70
2023/10/21 03:46:14;;;;;;;46.65;24.30;;;9.80;99.90;;;;;;5077090;28;20109;-69
2023/10/21 03:48:41;;;;;;;53.38;26.73;;;9.80;99.90;;;;;;5073295;28;20089;-70
2023/10/21 03:51:10;;;;;;;53.08;26.05;;;9.90;99.90;;;;;;5076784;28;20105;-70
2023/10/21 03:53:39;;;;;;;53.05;27.10;;;9.80;99.90;;;;;;5076907;28;20131;-70
2023/10/21 03:56:06;;;;;;;51.00;27.45;;;9.80;99.90;;;;;;5076555;28;20044;-70
2023/10/21 03:58:34;;;;;;;57.42;27.15;;;9.80;99.90;;;;;;5076694;28;20101;-70
2023/10/21 04:01:01;;;;;;;43.28;25.63;;;9.70;99.90;;;;;;5076352;28;20573;-70
2023/10/21 04:03:28;;;;;;;43.20;25.00;;;9.70;99.90;;;;;;5075519;28;20044;-71
2023/10/21 04:05:56;;;;;;;56.00;27.67;;;9.70;99.90;;;;;;5076605;28;20048;-70
2023/10/21 04:08:23;;;;;;;51.13;27.38;;;9.70;99.90;;;;;;5076436;28;20048;-72
2023/10/21 04:10:52;;;;;;;54.85;27.30;;;9.70;99.90;;;;;;5075931;28;20056;-71
2023/10/21 04:13:19;;;;;;;54.92;27.35;;;9.70;99.90;;;;;;5076391;28;20093;-71
2023/10/21 04:15:49;;;;;;;47.03;26.52;;;9.70;99.90;;;;;;5076536;28;20070;-71
2023/10/21 04:18:16;;;;;;;52.13;24.25;;;9.70;99.90;;;;;;5075662;28;20052;-72
2023/10/21 04:20:43;;;;;;;51.50;26.63;;;9.60;99.90;;;;;;5076487;28;20097;-70
2023/10/21 04:23:09;;;;;;;56.88;28.10;;;9.60;99.90;;;;;;5075632;28;20090;-71
2023/10/21 04:25:36;;;;;;;51.78;27.08;;;9.60;99.90;;;;;;5075674;28;20047;-71
2023/10/21 04:28:03;;;;;;;48.92;26.55;;;9.60;99.90;;;;;;5072367;28;20060;-71
2023/10/21 04:30:31;;;;;;;46.38;23.88;;;9.50;99.90;;;;;;5075959;28;20361;-70
2023/10/21 04:32:59;;;;;;;43.75;23.88;;;9.50;99.90;;;;;;5071784;28;20036;-70
2023/10/21 04:35:26;;;;;;;45.10;24.05;;;9.50;99.90;;;;;;5075843;28;20093;-69
2023/10/21 04:37:54;;;;;;;45.47;25.17;;;9.50;99.90;;;;;;5093428;28;20047;-70
2023/10/21 04:40:21;;;;;;;46.08;24.48;;;9.50;99.90;;;;;;5093836;28;20135;-69
2023/10/21 04:42:48;;;;;;;48.75;27.05;;;9.50;99.90;;;;;;5075892;28;20086;-70
2023/10/21 04:45:14;;;;;;;44.47;24.83;;;9.50;99.90;;;;;;5075264;28;20048;-69
2023/10/21 04:47:41;;;;;;;45.10;24.38;;;9.40;99.90;;;;;;5075914;28;20048;-71
2023/10/21 04:50:10;;;;;;;35.47;22.42;;;9.40;99.90;;;;;;5075707;28;20055;-71
2023/10/21 04:52:38;;;;;;;38.28;22.98;;;9.50;99.90;;;;;;5075415;28;20119;-71
2023/10/21 04:55:06;;;;;;;43.13;22.98;;;9.50;99.90;;;;;;5075617;28;20048;-71
2023/10/21 04:57:32;;;;;;;35.47;20.05;;;9.50;99.90;;;;;;5075670;28;20085;-70
2023/10/21 04:59:59;;;;;;;39.70;21.67;;;9.50;99.90;;;;;;5074900;28;20393;-70
2023/10/21 05:02:26;;;;;;;36.67;21.27;;;9.50;99.90;;;;;;5075250;28;20040;-72
2023/10/21 05:04:53;;;;;;;32.80;19.95;;;9.50;99.90;;;;;;5075333;28;20048;-71
2023/10/21 05:07:21;;;;;;;35.13;19.15;;;9.50;99.90;;;;;;5089063;28;20435;-71
2023/10/21 05:09:48;;;;;;;32.17;19.55;;;9.50;99.90;;;;;;5093480;28;20097;-72
2023/10/21 05:12:15;;;;;;;34.20;18.27;;;9.50;99.90;;;;;;5075567;28;20040;-73
2023/10/21 05:14:42;;;;;;;30.17;18.33;;;9.50;99.90;;;;;;5075045;28;20508;-72
2023/10/21 05:17:09;;;;;;;37.75;19.38;;;9.50;99.90;;;;;;5075180;28;20058;-72
2023/10/21 05:19:36;;;;;;;29.25;18.00;;;9.50;99.90;;;;;;5075036;28;20048;-72
2023/10/21 05:22:04;;;;;;;33.28;19.58;;;9.50;99.90;;;;;;5074550;28;20047;-72
2023/10/21 05:24:32;;;;;;;35.63;20.33;;;9.50;99.90;;;;;;5070908;28;20048;-72
2023/10/21 05:26:59;;;;;;;29.15;19.00;;;9.50;99.90;;;;;;5074531;28;20048;-70
2023/10/21 05:29:26;;;;;;;37.10;20.05;;;9.40;99.90;;;;;;5075067;28;20048;-70
2023/10/21 05:31:54;;;;;;;34.22;19.67;;;9.40;99.90;;;;;;5074675;28;20052;-70
2023/10/21 05:34:21;;;;;;;29.58;17.05;;;9.40;99.90;;;;;;5058301;28;20099;-70
2023/10/21 05:36:48;;;;;;;33.80;19.05;;;9.50;99.90;;;;;;5079795;28;20070;-70
2023/10/21 05:39:15;;;;;;;30.35;16.60;;;9.50;99.90;;;;;;5060423;28;20044;-70
2023/10/21 05:41:43;;;;;;;29.65;17.73;;;9.50;99.90;;;;;;5063359;28;20086;-71
2023/10/21 05:44:10;;;;;;;30.27;17.35;;;9.50;99.90;;;;;;5072753;28;20109;-70
2023/10/21 05:46:37;;;;;;;31.77;18.20;;;9.50;99.90;;;;;;5069560;28;20053;-69
2023/10/21 05:49:05;;;;;;;29.30;16.73;;;9.50;99.90;;;;;;5070227;28;20097;-71
2023/10/21 05:51:31;;;;;;;27.38;15.70;;;9.60;99.90;;;;;;5073360;28;20101;-69
2023/10/21 05:53:58;;;;;;;30.83;17.73;;;9.60;99.90;;;;;;5069944;28;20044;-70
2023/10/21 05:56:25;;;;;;;30.55;16.58;;;9.60;99.90;;;;;;5068449;28;20048;-70
2023/10/21 05:58:54;;;;;;;31.23;17.73;;;9.60;99.90;;;;;;5066748;28;20048;-71
2023/10/21 06:01:21;;;;;;;25.02;14.50;;;9.60;99.90;;;;;;5088478;28;20067;-70
2023/10/21 06:03:48;;;;;;;27.15;16.27;;;9.70;99.90;;;;;;5069874;28;20051;-70
2023/10/21 06:06:17;;;;;;;33.85;16.55;;;9.70;99.90;;;;;;5069339;28;20064;-70
2023/10/21 06:08:45;;;;;;;31.70;16.48;;;9.70;99.90;;;;;;5070299;28;20090;-71
2023/10/21 06:11:12;;;;;;;31.90;16.58;;;9.70;99.90;;;;;;5067625;28;20138;-70
2023/10/21 06:13:39;;;;;;;28.90;16.58;;;9.70;99.90;;;;;;5089919;28;20055;-69
2023/10/21 06:16:08;;;;;;;30.92;16.55;;;9.70;99.90;;;;;;5071097;28;20044;-69
2023/10/21 06:18:36;;;;;;;28.43;15.13;;;9.70;99.90;;;;;;5062076;28;20719;-68
2023/10/21 06:21:04;;;;;;;26.38;14.88;;;9.80;99.90;;;;;;5069708;28;20059;-68
2023/10/21 06:23:32;;;;;;;27.10;16.20;;;9.80;99.90;;;;;;5066343;28;20094;-68
2023/10/21 06:25:59;;;;;;;28.75;16.60;;;9.80;99.90;;;;;;5071225;28;20059;-70
2023/10/21 06:28:26;;;;;;;25.58;14.55;;;9.80;99.90;;;;;;5069309;28;20101;-69
2023/10/21 06:30:52;;;;;;;24.80;15.68;;;9.90;99.90;;;;;;5069705;28;20040;-66
2023/10/21 06:33:21;;;;;;;31.15;15.63;;;9.90;99.90;;;;;;5069747;28;20052;-69
2023/10/21 06:35:48;;;;;;;30.70;14.75;;;9.90;99.90;;;;;;5061673;28;20052;-69
2023/10/21 06:38:15;;;;;;;32.35;15.57;;;9.90;99.90;;;;;;5068449;28;20052;-69
2023/10/21 06:40:44;;;;;;;35.95;17.92;;;10.00;99.90;;;;;;5071196;28;20070;-69
2023/10/21 06:43:11;;;;;;;27.13;15.68;;;10.00;99.90;;;;;;5073512;28;20071;-68
2023/10/21 06:45:38;;;;;;;27.45;14.73;;;10.10;99.90;;;;;;5073092;28;20090;-69
2023/10/21 06:48:05;;;;;;;30.95;15.75;;;10.00;99.90;;;;;;5076737;28;20130;-69
2023/10/21 06:50:35;;;;;;;22.95;14.57;;;10.10;99.90;;;;;;5077520;28;20457;-76
2023/10/21 06:53:02;;;;;;;26.23;15.20;;;10.10;99.90;;;;;;5076958;28;20092;-69
2023/10/21 06:55:29;;;;;;;23.83;13.63;;;10.20;99.90;;;;;;5077381;28;20044;-68
2023/10/21 06:57:55;;;;;;;28.08;15.00;;;10.20;99.90;;;;;;5077446;28;20048;-69
2023/10/21 07:00:23;;;;;;;20.95;13.43;;;10.20;99.90;;;;;;5076415;28;20097;-69
2023/10/21 07:02:50;;;;;;;25.77;14.85;;;10.30;99.90;;;;;;5095666;28;20044;-69
2023/10/21 07:05:17;;;;;;;27.50;14.32;;;10.30;99.90;;;;;;5077483;28;20079;-68
2023/10/21 07:07:45;;;;;;;22.13;13.68;;;10.40;99.90;;;;;;5076908;28;20060;-69
2023/10/21 07:10:12;;;;;;;23.80;13.20;;;10.40;99.90;;;;;;5075263;28;20044;-69
2023/10/21 07:12:39;;;;;;;24.20;13.15;;;10.40;99.90;;;;;;5074467;28;20089;-69
2023/10/21 07:15:09;;;;;;;24.15;12.75;;;10.50;99.90;;;;;;5065636;28;20559;-68
2023/10/21 07:17:37;;;;;;;20.80;13.15;;;10.50;99.90;;;;;;5068847;28;20624;-69
2023/10/21 07:20:05;;;;;;;23.88;14.30;;;10.50;99.90;;;;;;5067263;28;20071;-68
2023/10/21 07:22:32;;;;;;;22.73;13.23;;;10.60;99.90;;;;;;5071053;28;20407;-69
2023/10/21 07:25:00;;;;;;;25.10;14.00;;;10.70;99.90;;;;;;5068127;28;20067;-72
2023/10/21 07:27:27;;;;;;;22.27;13.13;;;11.00;99.90;;;;;;5069505;28;20385;-68
2023/10/21 07:29:55;;;;;;;20.50;12.57;;;10.80;99.90;;;;;;5060634;28;20053;-68
2023/10/21 07:32:23;;;;;;;22.08;12.35;;;10.80;99.90;;;;;;5069737;28;20135;-69
2023/10/21 07:34:51;;;;;;;23.55;13.02;;;10.80;99.90;;;;;;5070988;28;20075;-67
2023/10/21 07:37:18;;;;;;;19.95;13.00;;;10.90;99.90;;;;;;5072610;28;20048;-68
2023/10/21 07:39:45;;;;;;;21.65;12.63;;;10.90;99.90;;;;;;5071785;28;20048;-68
2023/10/21 07:42:14;;;;;;;24.25;13.50;;;11.00;99.90;;;;;;5068465;28;20048;-70
2023/10/21 07:44:41;;;;;;;21.40;13.50;;;11.00;99.90;;;;;;5070063;28;20052;-68
2023/10/21 07:47:08;;;;;;;19.15;12.80;;;11.00;99.90;;;;;;5071934;28;21248;-68
2023/10/21 07:49:35;;;;;;;20.17;12.05;;;11.10;99.90;;;;;;5073681;28;20047;-68
2023/10/21 07:52:03;;;;;;;17.02;11.45;;;11.10;99.90;;;;;;5072308;28;20059;-68
2023/10/21 07:54:30;;;;;;;19.15;11.57;;;11.10;99.90;;;;;;5075693;28;20226;-69
2023/10/21 07:56:57;;;;;;;17.92;12.10;;;11.10;99.90;;;;;;5072617;28;20052;-69
2023/10/21 07:59:27;;;;;;;18.90;11.57;;;11.20;99.90;;;;;;5092568;28;20048;-68
2023/10/21 08:01:54;;;;;;;16.92;11.77;;;11.20;99.90;;;;;;5071075;28;20102;-69
2023/10/21 08:04:21;;;;;;;16.27;11.48;;;11.30;99.90;;;;;;5072676;28;20064;-69
2023/10/21 08:06:48;;;;;;;16.25;11.05;;;11.30;99.90;;;;;;5074531;28;20051;-69
2023/10/21 08:09:15;;;;;;;16.25;11.13;;;11.30;99.90;;;;;;5071312;28;20129;-68
2023/10/21 08:11:43;;;;;;;20.42;11.10;;;11.40;99.90;;;;;;5073737;28;20048;-69
2023/10/21 08:14:10;;;;;;;17.55;10.98;;;11.40;99.90;;;;;;5073460;28;20048;-68
2023/10/21 08:16:38;;;;;;;21.33;10.48;;;11.50;99.90;;;;;;5073129;28;20127;-69
2023/10/21 08:19:06;;;;;;;18.25;11.38;;;11.60;99.90;;;;;;5072798;28;20479;-69
2023/10/21 08:21:34;;;;;;;20.95;10.80;;;11.70;99.90;;;;;;5073082;28;20090;-69
2023/10/21 08:24:02;;;;;;;20.05;10.20;;;11.80;99.90;;;;;;5072228;28;20044;-68
2023/10/21 08:26:29;;;;;;;15.30;10.43;;;11.90;99.90;;;;;;5073422;28;20080;-68
2023/10/21 08:28:57;;;;;;;16.90;10.20;;;12.00;99.90;;;;;;5073689;28;20063;-68
2023/10/21 08:31:24;;;;;;;16.42;9.95;;;12.10;99.90;;;;;;5072579;28;20553;-68
2023/10/21 08:33:53;;;;;;;13.45;9.05;;;12.20;99.90;;;;;;5090668;28;20408;-68
2023/10/21 08:36:21;;;;;;;12.82;9.18;;;12.30;99.90;;;;;;5072979;28;20089;-69
2023/10/21 08:38:48;;;;;;;13.10;9.63;;;12.40;99.90;;;;;;5069782;28;20496;-68
2023/10/21 08:41:15;;;;;;;15.68;8.90;;;12.60;99.90;;;;;;5072997;28;20051;-68
2023/10/21 08:43:46;;;;;;;15.93;9.68;;;12.70;99.90;;;;;;5073804;28;20059;-68
2023/10/21 08:46:15;;;;;;;16.05;8.77;;;12.80;99.90;;;;;;5069137;28;20059;-67
2023/10/21 08:48:43;;;;;;;16.40;9.38;;;13.00;99.90;;;;;;5090154;28;20044;-69
2023/10/21 08:51:16;;;;;;;14.30;7.93;;;13.20;99.90;;;;;;5070951;28;20048;-68
2023/10/21 08:53:46;;;;;;;13.10;7.47;;;13.50;99.90;;;;;;5069591;28;20052;-69
2023/10/21 08:56:13;;;;;;;12.93;6.63;;;14.40;99.90;;;;;;5072288;28;20056;-68
2023/10/21 08:58:40;;;;;;;10.02;6.97;;;15.60;99.90;;;;;;5072331;28;20545;-69
2023/10/21 09:01:08;;;;;;;11.98;6.50;;;16.60;99.90;;;;;;5069391;28;20471;-69
2023/10/21 09:03:35;;;;;;;7.97;5.78;;;17.50;99.90;;;;;;5072164;28;20043;-69
2023/10/21 09:06:03;;;;;;;11.57;4.88;;;18.30;99.90;;;;;;5066653;28;20056;-68
2023/10/21 09:08:33;;;;;;;9.43;5.45;;;19.20;99.90;;;;;;5071871;28;20145;-68
2023/10/21 09:10:59;;;;;;;9.13;5.40;;;19.90;99.90;;;;;;5069564;28;20056;-69
2023/10/21 09:13:30;;;;;;;6.03;4.40;;;20.60;99.90;;;;;;5073192;28;20040;-68
2023/10/21 09:15:57;;;;;;;6.53;4.57;;;20.90;99.90;;;;;;5069490;28;20055;-69
2023/10/21 09:18:24;;;;;;;6.65;3.90;;;21.50;99.90;;;;;;5069517;28;20054;-69
2023/10/21 09:20:51;;;;;;;6.45;4.05;;;21.90;99.90;;;;;;5087191;28;20049;-68
2023/10/21 09:23:18;;;;;;;6.40;4.10;;;22.50;99.90;;;;;;5072859;28;20052;-68
2023/10/21 09:25:50;;;;;;;7.15;3.58;;;22.90;99.90;;;;;;5070523;28;20093;-68
2023/10/21 09:28:21;;;;;;;11.32;4.03;;;22.70;99.90;;;;;;5071433;28;20044;-68
2023/10/21 09:30:57;;;;;;;5.97;3.63;;;22.10;99.90;;;;;;5068986;28;20488;-68
2023/10/21 09:33:25;;;;;;;6.57;3.50;;;20.90;99.90;;;;;;5067498;28;20043;-67
2023/10/21 09:36:03;;;;;;;9.35;4.00;;;20.20;99.90;;;;;;5074684;28;20051;-69
2023/10/21 09:38:37;;;;;;;4.88;3.67;;;19.80;99.90;;;;;;5075051;28;20464;-68
2023/10/21 09:41:08;;;;;;;6.75;3.85;;;19.40;99.90;;;;;;5074187;28;20127;-70
2023/10/21 09:43:38;;;;;;;7.05;3.70;;;18.70;99.90;;;;;;5074402;28;20135;-69
2023/10/21 09:46:06;;;;;;;5.13;3.42;;;18.20;99.90;;;;;;5075115;28;20135;-68
2023/10/21 09:48:40;;;;;;;5.30;3.08;;;17.70;99.90;;;;;;5074364;28;20048;-69
2023/10/21 09:51:09;;;;;;;5.75;3.38;;;17.30;99.90;;;;;;5074967;28;20407;-69
2023/10/21 09:53:40;;;;;;;7.45;2.78;;;17.00;99.90;;;;;;5074356;28;20127;-69
2023/10/21 09:56:10;;;;;;;8.48;3.53;;;16.70;99.90;;;;;;5074246;28;20052;-68
2023/10/21 09:58:39;;;;;;;8.93;3.60;;;16.50;99.90;;;;;;5070521;28;20052;-68
2023/10/21 10:01:07;;;;;;;8.10;3.33;;;16.40;99.90;;;;;;5074093;28;20048;-68
2023/10/21 10:03:36;;;;;;;6.95;3.10;;;16.30;99.90;;;;;;5073578;28;20495;-68
2023/10/21 10:06:04;;;;;;;5.70;3.03;;;16.20;99.90;;;;;;5074561;28;20048;-68
2023/10/21 10:08:34;;;;;;;5.95;2.70;;;16.10;99.90;;;;;;5072277;28;20044;-68
2023/10/21 10:11:03;;;;;;;8.30;2.50;;;15.90;99.90;;;;;;5074552;28;20048;-69
2023/10/21 10:13:34;;;;;;;4.75;2.72;;;15.80;99.90;;;;;;5074525;28;20399;-68
2023/10/21 10:16:19;;;;;;;3.88;2.20;;;15.80;99.90;;;;;;5074345;28;20052;-67
2023/10/21 10:18:49;;;;;;;4.30;2.17;;;15.70;99.90;;;;;;5072183;28;20488;-67
2023/10/21 10:21:16;;;;;;;6.80;2.50;;;15.60;99.90;;;;;;5091414;28;20440;-68
2023/10/21 10:23:49;;;;;;;4.32;2.00;;;15.40;99.90;;;;;;5073379;28;20044;-67
2023/10/21 10:26:17;;;;;;;5.90;2.55;;;15.40;99.90;;;;;;5074141;28;20074;-67
2023/10/21 10:28:46;;;;;;;5.65;2.30;;;15.30;99.90;;;;;;5074118;28;20048;-68
2023/10/21 10:31:13;;;;;;;3.72;2.50;;;15.20;99.90;;;;;;5073715;28;20056;-68
2023/10/21 10:33:51;;;;;;;6.88;2.38;;;15.20;99.90;;;;;;5074126;28;20048;-68
2023/10/21 10:36:28;;;;;;;7.38;2.30;;;15.20;99.90;;;;;;5051279;28;20071;-68
2023/10/21 10:38:55;;;;;;;5.53;2.63;;;15.10;99.90;;;;;;5067641;28;20049;-67
2023/10/21 10:41:22;;;;;;;4.65;2.40;;;15.00;99.90;;;;;;5068866;28;20131;-68
2023/10/21 10:43:54;;;;;;;4.18;2.22;;;15.00;99.90;;;;;;5061530;28;20048;-68
2023/10/21 10:46:22;;;;;;;8.35;2.92;;;14.90;99.90;;;;;;5069494;28;20164;-67
2023/10/21 10:48:49;;;;;;;3.42;2.17;;;14.80;99.90;;;;;;5064501;28;20122;-69
2023/10/21 10:51:17;;;;;;;4.35;2.10;;;14.80;99.90;;;;;;5067678;28;20045;-68
2023/10/21 10:53:46;;;;;;;4.78;1.70;;;14.80;99.90;;;;;;5071461;28;20055;-69
2023/10/21 10:56:18;;;;;;;4.57;1.80;;;14.70;99.90;;;;;;5069121;28;20138;-67
2023/10/21 10:58:46;;;;;;;3.70;1.77;;;14.70;99.90;;;;;;5070861;28;20101;-68
2023/10/21 11:01:20;;;;;;;5.22;1.55;;;14.60;99.90;;;;;;5087669;28;20143;-68
2023/10/21 11:03:55;;;;;;;3.75;1.23;;;14.70;99.90;;;;;;5067649;28;20044;-68
2023/10/21 11:06:23;;;;;;;2.42;1.40;;;14.70;99.90;;;;;;5062035;28;20041;-68
2023/10/21 11:08:51;;;;;;;3.25;1.65;;;14.70;99.90;;;;;;5070687;28;20488;-68
2023/10/21 11:11:18;;;;;;;2.30;1.27;;;14.70;99.90;;;;;;5070929;28;20052;-69
2023/10/21 11:13:47;;;;;;;3.05;1.23;;;14.60;99.90;;;;;;5070337;28;20113;-69
2023/10/21 11:16:15;;;;;;;4.38;1.30;;;14.40;99.90;;;;;;5088633;28;20101;-69
2023/10/21 11:18:44;;;;;;;3.58;1.30;;;14.30;99.90;;;;;;5069581;28;20055;-69
2023/10/21 11:21:11;;;;;;;2.30;0.90;;;14.40;99.90;;;;;;5072113;28;20044;-67
2023/10/21 11:23:37;;;;;;;2.45;1.27;;;14.40;99.90;;;;;;5068884;28;20189;-68
2023/10/21 11:26:07;;;;;;;2.88;0.90;;;14.50;99.90;;;;;;5070856;28;20051;-69
2023/10/21 11:28:36;;;;;;;3.53;1.10;;;14.60;99.90;;;;;;5068792;28;20055;-68
2023/10/21 11:31:03;;;;;;;2.63;1.20;;;14.70;99.90;;;;;;5085243;28;20278;-68
2023/10/21 11:33:30;;;;;;;1.98;1.02;;;15.00;99.90;;;;;;5069921;28;20089;-68
2023/10/21 11:35:59;;;;;;;3.95;1.25;;;15.00;99.90;;;;;;5073167;28;20407;-68
2023/10/21 11:38:28;;;;;;;2.65;1.00;;;15.70;99.90;;;;;;5074725;28;20531;-69
2023/10/21 11:40:55;;;;;;;2.78;1.20;;;16.30;99.90;;;;;;5092809;28;20097;-69
2023/10/21 11:43:25;;;;;;;2.42;1.05;;;16.40;99.90;;;;;;5072026;28;20048;-68
2023/10/21 11:45:55;;;;;;;2.75;1.00;;;16.30;99.90;;;;;;5074311;28;20051;-68
2023/10/21 11:48:24;;;;;;;2.22;1.00;;;15.90;99.90;;;;;;5073683;28;20131;-68
2023/10/21 11:50:51;;;;;;;2.33;1.00;;;15.80;99.90;;;;;;5073043;28;21777;-68
2023/10/21 11:53:20;;;;;;;1.83;0.77;;;15.60;99.90;;;;;;5093859;28;20128;-69
2023/10/21 12:15:45;;;;;;;2.15;0.88;;;14.60;99.90;;;;;;5071904;28;20043;-67
2023/10/21 12:24:16;;;;;;;4.05;0.82;;;14.60;99.90;;;;;;5045082;28;20051;-68
2023/10/21 12:27:17;;;;;;;4.97;0.98;;;14.60;99.90;;;;;;5072334;28;20134;-66
2023/10/21 12:35:37;;;;;;;4.00;0.80;;;15.10;99.90;;;;;;5055424;28;20051;-67
2023/10/21 12:41:15;;;;;;;2.58;0.75;;;18.60;99.90;;;;;;5063953;28;20059;-67
2023/10/21 12:43:45;;;;;;;;;;;20.10;99.90;;;;;;5068394;28;20052;-67
2023/10/21 12:46:18;;;;;;;;;;;21.00;99.90;;;;;;5071868;28;19981;-68
2023/10/21 12:48:52;;;;;;;2.50;0.90;;;21.10;99.90;;;;;;5070482;28;19924;-68
2023/10/21 12:51:19;;;;;;;2.20;0.70;;;20.30;99.90;;;;;;5065292;28;20049;-68
2023/10/21 12:53:46;;;;;;;2.65;0.60;;;19.60;99.90;;;;;;5073949;28;20048;-68
2023/10/21 12:56:14;;;;;;;2.38;0.82;;;18.80;99.90;;;;;;5071922;28;20109;-67
2023/10/21 12:58:43;;;;;;;2.78;0.75;;;18.20;99.90;;;;;;5068925;28;20151;-67
2023/10/21 13:01:12;;;;;;;4.50;0.88;;;17.50;99.90;;;;;;5071223;28;20770;-67
2023/10/21 13:03:39;;;;;;;1.27;0.50;;;17.00;99.90;;;;;;5073218;28;20121;-68
2023/10/21 13:06:07;;;;;;;3.20;0.77;;;16.90;99.90;;;;;;5087943;28;20048;-66
2023/10/21 13:08:34;;;;;;;4.35;0.95;;;17.50;99.90;;;;;;5070617;28;20056;-68
2023/10/21 13:11:01;;;;;;;3.72;0.82;;;18.20;99.90;;;;;;5073341;28;20048;-67
2023/10/21 13:13:28;;;;;;;2.85;0.80;;;17.70;99.90;;;;;;5073224;28;20051;-67